createdAt,value
2019-03-27T00:00:01.046Z,929.78
2019-03-27T00:00:13.986Z,929.77
2019-03-27T00:00:27.010Z,929.77
2019-03-27T00:00:40.045Z,929.81
2019-03-27T00:00:53.051Z,929.81
2019-03-27T00:01:06.052Z,929.89
2019-03-27T00:01:19.083Z,929.8
2019-03-27T00:01:32.157Z,929.89
2019-03-27T00:01:46.081Z,929.83
2019-03-27T00:01:59.115Z,929.86
2019-03-27T00:02:12.206Z,929.82
2019-03-27T00:02:25.171Z,929.85
2019-03-27T00:02:38.081Z,929.83
2019-03-27T00:02:51.033Z,929.83
2019-03-27T00:03:04.085Z,929.78
2019-03-27T00:03:17.115Z,929.8
2019-03-27T00:03:30.140Z,929.83
2019-03-27T00:03:43.139Z,929.79
2019-03-27T00:03:56.144Z,929.81
2019-03-27T00:04:09.264Z,929.81
2019-03-27T00:04:22.308Z,929.8
2019-03-27T00:04:35.423Z,929.81
2019-03-27T00:04:48.535Z,929.81
2019-03-27T00:05:01.596Z,929.79
2019-03-27T00:05:14.671Z,929.8
2019-03-27T00:05:27.729Z,929.81
2019-03-27T00:05:40.697Z,929.75
2019-03-27T00:05:53.682Z,929.82
2019-03-27T00:06:06.641Z,929.77
2019-03-27T00:06:19.709Z,929.78
2019-03-27T00:06:32.702Z,929.77
2019-03-27T00:06:45.822Z,929.78
2019-03-27T00:06:58.810Z,929.76
2019-03-27T00:07:11.761Z,929.8
2019-03-27T00:07:24.831Z,929.81
2019-03-27T00:07:37.954Z,929.79
2019-03-27T00:07:50.954Z,929.76
2019-03-27T00:08:03.943Z,929.82
2019-03-27T00:08:17.029Z,929.82
2019-03-27T00:08:30.077Z,929.78
2019-03-27T00:08:43.172Z,929.82
2019-03-27T00:08:56.237Z,929.78
2019-03-27T00:09:09.220Z,929.81
2019-03-27T00:09:22.194Z,929.83
2019-03-27T00:09:35.211Z,929.85
2019-03-27T00:09:48.200Z,929.82
2019-03-27T00:10:01.311Z,929.83
2019-03-27T00:10:14.448Z,929.81
2019-03-27T00:10:27.439Z,929.86
2019-03-27T00:10:40.575Z,929.84
2019-03-27T00:10:53.588Z,929.84
2019-03-27T00:11:06.435Z,929.85
2019-03-27T00:11:20.370Z,929.85
2019-03-27T00:11:33.334Z,929.82
2019-03-27T00:11:46.317Z,929.87
2019-03-27T00:11:59.236Z,929.88
2019-03-27T00:12:11.813Z,929.89
2019-03-27T00:12:24.869Z,929.85
2019-03-27T00:12:38.014Z,929.87
2019-03-27T00:12:51.086Z,929.87
2019-03-27T00:13:04.116Z,929.84
2019-03-27T00:13:17.090Z,929.88
2019-03-27T00:13:29.638Z,929.91
2019-03-27T00:13:42.659Z,929.88
2019-03-27T00:13:55.773Z,929.85
2019-03-27T00:14:08.779Z,929.93
2019-03-27T00:14:21.317Z,929.88
2019-03-27T00:14:34.326Z,929.85
2019-03-27T00:14:47.436Z,929.9
2019-03-27T00:15:14.025Z,929.86
2019-03-27T00:15:26.624Z,929.85
2019-03-27T00:15:39.639Z,929.87
2019-03-27T00:15:52.206Z,929.85
2019-03-27T00:16:05.257Z,929.86
2019-03-27T00:16:18.313Z,929.83
2019-03-27T00:16:31.355Z,929.89
2019-03-27T00:16:44.678Z,929.87
2019-03-27T00:16:57.680Z,929.89
2019-03-27T00:17:10.747Z,929.87
2019-03-27T00:17:23.761Z,929.85
2019-03-27T00:17:36.717Z,929.9
2019-03-27T00:17:49.273Z,929.89
2019-03-27T00:18:02.333Z,929.88
2019-03-27T00:18:15.362Z,929.91
2019-03-27T00:18:27.925Z,929.88
2019-03-27T00:18:40.995Z,929.9
2019-03-27T00:18:53.956Z,929.9
2019-03-27T00:19:06.976Z,929.89
2019-03-27T00:19:19.904Z,929.93
2019-03-27T00:19:32.874Z,929.94
2019-03-27T00:19:45.868Z,929.92
2019-03-27T00:19:58.953Z,929.93
2019-03-27T00:20:11.929Z,929.88
2019-03-27T00:20:24.966Z,929.97
2019-03-27T00:20:37.590Z,929.96
2019-03-27T00:20:50.552Z,929.94
2019-03-27T00:21:03.703Z,929.93
2019-03-27T00:21:16.296Z,929.91
2019-03-27T00:21:29.272Z,929.89
2019-03-27T00:21:42.350Z,929.91
2019-03-27T00:21:55.528Z,929.92
2019-03-27T00:22:08.092Z,929.91
2019-03-27T00:22:21.197Z,929.92
2019-03-27T00:22:34.191Z,929.94
2019-03-27T00:22:47.248Z,929.92
2019-03-27T00:23:00.267Z,929.91
2019-03-27T00:23:13.256Z,929.89
2019-03-27T00:23:26.302Z,929.94
2019-03-27T00:23:39.228Z,929.95
2019-03-27T00:23:52.260Z,929.95
2019-03-27T00:24:05.322Z,929.98
2019-03-27T00:24:18.392Z,929.96
2019-03-27T00:24:30.893Z,929.96
2019-03-27T00:24:43.838Z,929.98
2019-03-27T00:24:56.869Z,929.99
2019-03-27T00:25:09.944Z,929.94
2019-03-27T00:25:23.069Z,929.93
2019-03-27T00:25:36.163Z,929.92
2019-03-27T00:25:49.179Z,929.94
2019-03-27T00:26:02.269Z,929.96
2019-03-27T00:26:15.398Z,929.96
2019-03-27T00:26:28.422Z,929.96
2019-03-27T00:26:41.448Z,929.95
2019-03-27T00:26:54.523Z,929.92
2019-03-27T00:27:07.041Z,929.93
2019-03-27T00:27:20.044Z,929.96
2019-03-27T00:27:32.981Z,929.96
2019-03-27T00:27:46.020Z,929.97
2019-03-27T00:27:59.091Z,929.93
2019-03-27T00:28:12.102Z,929.95
2019-03-27T00:28:25.124Z,929.95
2019-03-27T00:28:37.750Z,929.9
2019-03-27T00:28:50.840Z,929.95
2019-03-27T00:29:03.891Z,929.89
2019-03-27T00:29:16.785Z,929.9
2019-03-27T00:29:29.832Z,929.97
2019-03-27T00:29:42.881Z,929.97
2019-03-27T00:29:55.931Z,929.91
2019-03-27T00:30:08.992Z,929.91
2019-03-27T00:30:22.066Z,929.86
2019-03-27T00:30:35.048Z,929.93
2019-03-27T00:30:48.082Z,929.94
2019-03-27T00:31:01.073Z,929.95
2019-03-27T00:31:15.964Z,929.96
2019-03-27T00:31:28.942Z,929.91
2019-03-27T00:31:41.983Z,929.89
2019-03-27T00:31:55.687Z,929.92
2019-03-27T00:32:08.324Z,929.93
2019-03-27T00:32:21.339Z,929.94
2019-03-27T00:32:34.278Z,929.91
2019-03-27T00:32:47.306Z,929.94
2019-03-27T00:33:00.273Z,929.92
2019-03-27T00:33:13.364Z,929.96
2019-03-27T00:33:26.352Z,929.9
2019-03-27T00:33:39.415Z,929.91
2019-03-27T00:33:52.532Z,929.94
2019-03-27T00:34:05.600Z,929.97
2019-03-27T00:34:18.573Z,929.93
2019-03-27T00:34:31.534Z,929.99
2019-03-27T00:34:44.429Z,929.97
2019-03-27T00:34:57.445Z,929.94
2019-03-27T00:35:10.433Z,929.98
2019-03-27T00:35:23.524Z,929.97
2019-03-27T00:35:36.529Z,929.96
2019-03-27T00:35:49.488Z,930.01
2019-03-27T00:36:02.591Z,929.96
2019-03-27T00:36:15.711Z,929.95
2019-03-27T00:36:28.785Z,929.96
2019-03-27T00:36:41.793Z,929.98
2019-03-27T00:36:54.827Z,929.94
2019-03-27T00:37:07.915Z,929.99
2019-03-27T00:37:20.952Z,929.98
2019-03-27T00:37:33.982Z,929.95
2019-03-27T00:37:47.102Z,929.97
2019-03-27T00:38:00.068Z,929.92
2019-03-27T00:38:12.600Z,929.99
2019-03-27T00:38:25.529Z,929.95
2019-03-27T00:38:38.457Z,929.97
2019-03-27T00:38:51.448Z,929.98
2019-03-27T00:39:04.588Z,930
2019-03-27T00:39:17.628Z,930.01
2019-03-27T00:39:30.697Z,930.02
2019-03-27T00:39:43.745Z,930.01
2019-03-27T00:39:56.863Z,930
2019-03-27T00:40:09.811Z,930.03
2019-03-27T00:40:22.877Z,930.03
2019-03-27T00:40:35.938Z,930.03
2019-03-27T00:40:48.970Z,930
2019-03-27T00:41:02.033Z,930.01
2019-03-27T00:41:15.036Z,930.03
2019-03-27T00:41:28.064Z,930.04
2019-03-27T00:41:41.014Z,930.06
2019-03-27T00:41:54.099Z,930.02
2019-03-27T00:42:07.145Z,930.05
2019-03-27T00:42:20.239Z,930.1
2019-03-27T00:42:32.878Z,930.05
2019-03-27T00:42:46.074Z,930.07
2019-03-27T00:42:59.077Z,930.07
2019-03-27T00:43:12.065Z,930.09
2019-03-27T00:43:25.082Z,930.07
2019-03-27T00:43:38.081Z,930.06
2019-03-27T00:43:50.609Z,930.06
2019-03-27T00:44:03.247Z,930.07
2019-03-27T00:44:16.317Z,930.06
2019-03-27T00:44:29.380Z,930.08
2019-03-27T00:44:42.414Z,930.11
2019-03-27T00:44:55.434Z,930.12
2019-03-27T00:45:08.409Z,930.08
2019-03-27T00:45:33.319Z,930.11
2019-03-27T00:45:46.353Z,930.13
2019-03-27T00:45:59.448Z,930.16
2019-03-27T00:46:12.439Z,930.14
2019-03-27T00:46:25.429Z,930.15
2019-03-27T00:46:37.965Z,930.12
2019-03-27T00:46:50.900Z,930.12
2019-03-27T00:47:04.286Z,930.15
2019-03-27T00:47:17.332Z,930.16
2019-03-27T00:47:30.352Z,930.1
2019-03-27T00:47:43.427Z,930.16
2019-03-27T00:47:56.513Z,930.13
2019-03-27T00:48:09.644Z,930.08
2019-03-27T00:48:22.685Z,930.12
2019-03-27T00:48:35.700Z,930.11
2019-03-27T00:48:48.734Z,930.13
2019-03-27T00:49:01.270Z,930.13
2019-03-27T00:49:14.275Z,930.14
2019-03-27T00:49:27.385Z,930.12
2019-03-27T00:49:40.353Z,930.13
2019-03-27T00:49:53.379Z,930.12
2019-03-27T00:50:06.391Z,930.14
2019-03-27T00:50:19.361Z,930.12
2019-03-27T00:50:32.358Z,930.16
2019-03-27T00:50:45.419Z,930.09
2019-03-27T00:50:58.413Z,930.15
2019-03-27T00:51:11.499Z,930.13
2019-03-27T00:51:24.382Z,930.09
2019-03-27T00:53:37.959Z,930.1
2019-03-27T00:53:51.006Z,930.13
2019-03-27T00:54:04.017Z,930.08
2019-03-27T00:54:16.932Z,930.1
2019-03-27T00:54:29.913Z,930.13
2019-03-27T00:54:42.924Z,930.1
2019-03-27T00:54:55.908Z,930.09
2019-03-27T00:55:09.001Z,930.1
2019-03-27T00:55:22.104Z,930.15
2019-03-27T00:55:35.234Z,930.11
2019-03-27T00:55:48.233Z,930.12
2019-03-27T00:56:01.261Z,930.09
2019-03-27T00:56:14.237Z,930.12
2019-03-27T00:56:27.201Z,930.11
2019-03-27T00:56:40.277Z,930.07
2019-03-27T00:56:53.301Z,930.1
2019-03-27T00:57:06.315Z,930.07
2019-03-27T00:57:19.357Z,930.11
2019-03-27T00:57:32.360Z,930.12
2019-03-27T00:57:45.395Z,930.08
2019-03-27T00:57:58.386Z,930.08
2019-03-27T00:58:11.427Z,930.1
2019-03-27T00:58:24.522Z,930.08
2019-03-27T00:58:37.467Z,930.09
2019-03-27T00:58:50.364Z,930.12
2019-03-27T00:59:03.395Z,930.1
2019-03-27T00:59:19.151Z,930.09
2019-03-27T00:59:32.343Z,930.1
2019-03-27T00:59:45.438Z,930.09
2019-03-27T00:59:58.485Z,930.08
2019-03-27T01:00:11.494Z,930.09
2019-03-27T01:00:24.502Z,930.09
2019-03-27T01:00:37.542Z,930.13
2019-03-27T01:00:50.544Z,930.15
2019-03-27T01:01:03.563Z,930.14
2019-03-27T01:01:16.622Z,930.16
2019-03-27T01:01:29.632Z,930.13
2019-03-27T01:01:42.628Z,930.14
2019-03-27T01:01:55.591Z,930.13
2019-03-27T01:02:08.683Z,930.1
2019-03-27T01:02:21.698Z,930.16
2019-03-27T01:02:34.633Z,930.12
2019-03-27T01:02:47.664Z,930.1
2019-03-27T01:03:00.603Z,930.11
2019-03-27T01:03:14.456Z,930.16
2019-03-27T01:03:27.404Z,930.16
2019-03-27T01:03:40.411Z,930.17
2019-03-27T01:03:53.519Z,930.16
2019-03-27T01:04:06.549Z,930.12
2019-03-27T01:04:19.619Z,930.11
2019-03-27T01:04:32.623Z,930.16
2019-03-27T01:04:45.618Z,930.12
2019-03-27T01:04:58.650Z,930.14
2019-03-27T01:05:11.696Z,930.16
2019-03-27T01:05:24.664Z,930.22
2019-03-27T01:05:37.603Z,930.15
2019-03-27T01:05:50.697Z,930.13
2019-03-27T01:06:03.756Z,930.14
2019-03-27T01:06:16.785Z,930.15
2019-03-27T01:06:29.852Z,930.16
2019-03-27T01:06:42.904Z,930.21
2019-03-27T01:06:58.161Z,930.15
2019-03-27T01:07:11.142Z,930.13
2019-03-27T01:07:24.128Z,930.12
2019-03-27T01:07:37.166Z,930.14
2019-03-27T01:07:50.152Z,930.12
2019-03-27T01:08:02.777Z,930.08
2019-03-27T01:08:15.806Z,930.12
2019-03-27T01:08:28.877Z,930.09
2019-03-27T01:08:41.402Z,930.09
2019-03-27T01:08:54.507Z,930.09
2019-03-27T01:09:07.568Z,930.09
2019-03-27T01:09:20.080Z,930.09
2019-03-27T01:09:33.140Z,930.1
2019-03-27T01:09:46.097Z,930.06
2019-03-27T01:09:59.225Z,930
2019-03-27T01:10:12.293Z,930.02
2019-03-27T01:10:25.422Z,930.03
2019-03-27T01:10:38.366Z,930.09
2019-03-27T01:10:51.414Z,930.11
2019-03-27T01:11:04.459Z,930.06
2019-03-27T01:11:17.450Z,930.04
2019-03-27T01:11:30.532Z,930.01
2019-03-27T01:11:43.627Z,930.03
2019-03-27T01:11:56.723Z,930.04
2019-03-27T01:12:09.800Z,930.04
2019-03-27T01:12:22.897Z,930.03
2019-03-27T01:12:36.029Z,930.02
2019-03-27T01:12:49.126Z,930.04
2019-03-27T01:13:02.155Z,930.06
2019-03-27T01:13:15.204Z,930.05
2019-03-27T01:13:28.289Z,930.03
2019-03-27T01:13:41.290Z,930.05
2019-03-27T01:13:54.225Z,930.03
2019-03-27T01:14:06.832Z,930.03
2019-03-27T01:14:19.839Z,930.04
2019-03-27T01:14:32.844Z,930.05
2019-03-27T01:14:45.884Z,930.07
2019-03-27T01:14:58.963Z,930.06
2019-03-27T01:15:12.024Z,930.05
2019-03-27T01:15:25.070Z,930.07
2019-03-27T01:15:49.810Z,930.09
2019-03-27T01:16:02.917Z,930.09
2019-03-27T01:16:16.082Z,930.06
2019-03-27T01:16:29.076Z,930.09
2019-03-27T01:16:42.062Z,930.08
2019-03-27T01:16:55.072Z,930.05
2019-03-27T01:17:08.108Z,930.1
2019-03-27T01:17:21.115Z,930.09
2019-03-27T01:17:34.049Z,930.08
2019-03-27T01:17:46.994Z,930.1
2019-03-27T01:18:00.152Z,930.15
2019-03-27T01:18:13.580Z,930.13
2019-03-27T01:18:26.565Z,930.07
2019-03-27T01:18:39.657Z,930.11
2019-03-27T01:18:52.667Z,930.15
2019-03-27T01:19:05.558Z,930.13
2019-03-27T01:19:18.097Z,930.11
2019-03-27T01:19:31.077Z,930.07
2019-03-27T01:19:44.080Z,930.11
2019-03-27T01:19:57.041Z,930.14
2019-03-27T01:20:09.573Z,930.11
2019-03-27T01:20:22.621Z,930.08
2019-03-27T01:20:35.739Z,930.09
2019-03-27T01:20:48.895Z,930.11
2019-03-27T01:21:01.995Z,930.12
2019-03-27T01:21:15.028Z,930.08
2019-03-27T01:21:27.972Z,930.08
2019-03-27T01:21:40.937Z,930.09
2019-03-27T01:21:53.944Z,930.09
2019-03-27T01:22:06.962Z,930.1
2019-03-27T01:22:19.968Z,930.14
2019-03-27T01:22:32.922Z,930.11
2019-03-27T01:22:45.970Z,930.11
2019-03-27T01:22:58.935Z,930.11
2019-03-27T01:23:12.010Z,930.11
2019-03-27T01:23:24.983Z,930.11
2019-03-27T01:23:38.070Z,930.17
2019-03-27T01:23:51.123Z,930.16
2019-03-27T01:24:03.653Z,930.16
2019-03-27T01:24:16.591Z,930.17
2019-03-27T01:24:29.557Z,930.17
2019-03-27T01:24:42.609Z,930.12
2019-03-27T01:24:55.701Z,930.18
2019-03-27T01:25:08.759Z,930.16
2019-03-27T01:25:21.806Z,930.14
2019-03-27T01:25:34.841Z,930.17
2019-03-27T01:25:47.842Z,930.19
2019-03-27T01:26:00.881Z,930.17
2019-03-27T01:26:13.418Z,930.17
2019-03-27T01:26:26.405Z,930.18
2019-03-27T01:26:39.446Z,930.18
2019-03-27T01:26:52.532Z,930.16
2019-03-27T01:27:05.614Z,930.19
2019-03-27T01:27:18.648Z,930.18
2019-03-27T01:27:31.284Z,930.15
2019-03-27T01:27:45.875Z,930.17
2019-03-27T01:27:58.840Z,930.18
2019-03-27T01:28:11.823Z,930.19
2019-03-27T01:28:25.502Z,930.19
2019-03-27T01:28:38.524Z,930.21
2019-03-27T01:28:51.556Z,930.22
2019-03-27T01:29:04.626Z,930.18
2019-03-27T01:29:17.657Z,930.2
2019-03-27T01:29:30.713Z,930.24
2019-03-27T01:29:43.724Z,930.26
2019-03-27T01:29:56.799Z,930.21
2019-03-27T01:30:09.886Z,930.22
2019-03-27T01:30:22.942Z,930.2
2019-03-27T01:30:35.971Z,930.19
2019-03-27T01:30:49.071Z,930.2
2019-03-27T01:31:02.059Z,930.2
2019-03-27T01:31:15.023Z,930.2
2019-03-27T01:31:28.062Z,930.23
2019-03-27T01:31:40.986Z,930.2
2019-03-27T01:31:54.044Z,930.24
2019-03-27T01:32:07.047Z,930.21
2019-03-27T01:32:20.198Z,930.23
2019-03-27T01:32:33.261Z,930.19
2019-03-27T01:32:46.321Z,930.2
2019-03-27T01:32:58.915Z,930.24
2019-03-27T01:33:11.947Z,930.22
2019-03-27T01:33:25.672Z,930.2
2019-03-27T01:33:38.636Z,930.19
2019-03-27T01:33:51.676Z,930.24
2019-03-27T01:34:04.699Z,930.26
2019-03-27T01:34:17.784Z,930.23
2019-03-27T01:34:30.762Z,930.21
2019-03-27T01:34:43.858Z,930.24
2019-03-27T01:34:56.845Z,930.22
2019-03-27T01:35:09.889Z,930.25
2019-03-27T01:35:22.855Z,930.24
2019-03-27T01:35:35.778Z,930.24
2019-03-27T01:35:48.744Z,930.28
2019-03-27T01:36:01.707Z,930.29
2019-03-27T01:36:14.752Z,930.26
2019-03-27T01:36:27.773Z,930.25
2019-03-27T01:36:40.820Z,930.24
2019-03-27T01:36:53.840Z,930.29
2019-03-27T01:37:06.901Z,930.25
2019-03-27T01:37:19.475Z,930.27
2019-03-27T01:37:32.536Z,930.27
2019-03-27T01:37:45.579Z,930.29
2019-03-27T01:37:58.619Z,930.32
2019-03-27T01:38:11.768Z,930.33
2019-03-27T01:38:24.756Z,930.31
2019-03-27T01:38:39.198Z,930.27
2019-03-27T01:38:52.255Z,930.29
2019-03-27T01:39:05.330Z,930.28
2019-03-27T01:39:18.369Z,930.25
2019-03-27T01:39:31.369Z,930.29
2019-03-27T01:39:43.952Z,930.26
2019-03-27T01:39:56.951Z,930.27
2019-03-27T01:40:09.976Z,930.3
2019-03-27T01:40:23.172Z,930.24
2019-03-27T01:40:36.158Z,930.29
2019-03-27T01:40:49.323Z,930.32
2019-03-27T01:41:02.318Z,930.3
2019-03-27T01:41:15.327Z,930.28
2019-03-27T01:41:28.290Z,930.29
2019-03-27T01:41:41.314Z,930.33
2019-03-27T01:41:54.275Z,930.32
2019-03-27T01:42:07.400Z,930.29
2019-03-27T01:42:20.409Z,930.31
2019-03-27T01:42:33.353Z,930.32
2019-03-27T01:42:46.284Z,930.33
2019-03-27T01:42:59.404Z,930.33
2019-03-27T01:43:12.403Z,930.28
2019-03-27T01:43:25.373Z,930.33
2019-03-27T01:43:38.394Z,930.35
2019-03-27T01:43:51.387Z,930.34
2019-03-27T01:44:04.412Z,930.37
2019-03-27T01:44:17.373Z,930.35
2019-03-27T01:44:30.439Z,930.33
2019-03-27T01:44:43.511Z,930.32
2019-03-27T01:44:56.594Z,930.36
2019-03-27T01:45:09.623Z,930.33
2019-03-27T01:45:22.177Z,930.35
2019-03-27T01:45:35.102Z,930.33
2019-03-27T01:45:59.962Z,930.33
2019-03-27T01:46:12.986Z,930.36
2019-03-27T01:46:25.995Z,930.37
2019-03-27T01:46:39.187Z,930.36
2019-03-27T01:46:52.242Z,930.35
2019-03-27T01:47:05.363Z,930.41
2019-03-27T01:47:18.357Z,930.41
2019-03-27T01:47:31.381Z,930.37
2019-03-27T01:47:44.356Z,930.4
2019-03-27T01:47:57.416Z,930.34
2019-03-27T01:48:10.645Z,930.34
2019-03-27T01:48:24.233Z,930.36
2019-03-27T01:48:37.287Z,930.36
2019-03-27T01:48:50.373Z,930.41
2019-03-27T01:49:03.386Z,930.35
2019-03-27T01:49:16.428Z,930.34
2019-03-27T01:49:29.456Z,930.36
2019-03-27T01:49:42.544Z,930.35
2019-03-27T01:49:55.605Z,930.37
2019-03-27T01:50:08.615Z,930.33
2019-03-27T01:50:21.620Z,930.34
2019-03-27T01:50:34.608Z,930.33
2019-03-27T01:50:47.765Z,930.36
2019-03-27T01:51:00.908Z,930.37
2019-03-27T01:51:13.894Z,930.35
2019-03-27T01:51:26.897Z,930.36
2019-03-27T01:51:39.893Z,930.35
2019-03-27T01:51:52.890Z,930.38
2019-03-27T01:52:09.077Z,930.42
2019-03-27T01:52:22.072Z,930.44
2019-03-27T01:52:34.995Z,930.39
2019-03-27T01:52:48.011Z,930.39
2019-03-27T01:53:01.049Z,930.43
2019-03-27T01:53:14.046Z,930.44
2019-03-27T01:53:27.142Z,930.44
2019-03-27T01:53:40.217Z,930.46
2019-03-27T01:53:53.216Z,930.48
2019-03-27T01:54:06.280Z,930.44
2019-03-27T01:54:19.286Z,930.5
2019-03-27T01:54:32.407Z,930.51
2019-03-27T01:54:45.442Z,930.5
2019-03-27T01:54:58.500Z,930.51
2019-03-27T01:55:11.024Z,930.49
2019-03-27T01:55:23.225Z,930.5
2019-03-27T01:55:36.265Z,930.48
2019-03-27T01:55:49.437Z,930.47
2019-03-27T01:56:02.448Z,930.4
2019-03-27T01:56:15.501Z,930.46
2019-03-27T01:56:28.545Z,930.47
2019-03-27T01:56:41.067Z,930.48
2019-03-27T01:56:54.078Z,930.48
2019-03-27T01:57:07.106Z,930.5
2019-03-27T01:57:20.074Z,930.47
2019-03-27T01:57:33.143Z,930.48
2019-03-27T01:57:46.135Z,930.44
2019-03-27T01:57:59.234Z,930.44
2019-03-27T01:58:12.260Z,930.48
2019-03-27T01:58:25.352Z,930.47
2019-03-27T01:58:38.510Z,930.46
2019-03-27T01:58:51.570Z,930.49
2019-03-27T01:59:04.590Z,930.47
2019-03-27T01:59:17.573Z,930.47
2019-03-27T01:59:30.550Z,930.44
2019-03-27T01:59:43.518Z,930.43
2019-03-27T01:59:56.553Z,930.44
2019-03-27T02:00:09.685Z,930.48
2019-03-27T02:00:22.635Z,930.49
2019-03-27T02:00:35.178Z,930.46
2019-03-27T02:00:48.142Z,930.47
2019-03-27T02:01:01.114Z,930.41
2019-03-27T02:01:14.145Z,930.45
2019-03-27T02:01:27.245Z,930.5
2019-03-27T02:01:40.302Z,930.44
2019-03-27T02:01:52.855Z,930.43
2019-03-27T02:02:05.937Z,930.46
2019-03-27T02:02:19.053Z,930.49
2019-03-27T02:02:32.060Z,930.49
2019-03-27T02:02:45.029Z,930.5
2019-03-27T02:02:58.072Z,930.47
2019-03-27T02:03:11.047Z,930.46
2019-03-27T02:03:24.033Z,930.48
2019-03-27T02:03:37.762Z,930.48
2019-03-27T02:03:50.796Z,930.5
2019-03-27T02:04:03.780Z,930.51
2019-03-27T02:04:16.844Z,930.48
2019-03-27T02:04:29.904Z,930.46
2019-03-27T02:04:42.952Z,930.48
2019-03-27T02:04:56.024Z,930.51
2019-03-27T02:05:09.104Z,930.49
2019-03-27T02:05:22.151Z,930.46
2019-03-27T02:05:35.189Z,930.45
2019-03-27T02:05:48.121Z,930.43
2019-03-27T02:06:01.204Z,930.46
2019-03-27T02:06:14.296Z,930.48
2019-03-27T02:06:27.251Z,930.51
2019-03-27T02:06:40.391Z,930.49
2019-03-27T02:06:53.467Z,930.44
2019-03-27T02:07:06.474Z,930.47
2019-03-27T02:07:19.573Z,930.46
2019-03-27T02:07:32.625Z,930.47
2019-03-27T02:07:45.681Z,930.5
2019-03-27T02:07:58.320Z,930.45
2019-03-27T02:08:11.352Z,930.42
2019-03-27T02:08:24.291Z,930.43
2019-03-27T02:08:37.302Z,930.46
2019-03-27T02:08:50.314Z,930.46
2019-03-27T02:09:03.465Z,930.45
2019-03-27T02:09:16.563Z,930.44
2019-03-27T02:09:29.513Z,930.43
2019-03-27T02:09:42.548Z,930.44
2019-03-27T02:09:55.568Z,930.43
2019-03-27T02:10:08.615Z,930.45
2019-03-27T02:10:21.663Z,930.4
2019-03-27T02:10:34.688Z,930.43
2019-03-27T02:10:47.711Z,930.43
2019-03-27T02:11:00.641Z,930.43
2019-03-27T02:11:13.226Z,930.43
2019-03-27T02:11:26.271Z,930.43
2019-03-27T02:11:39.214Z,930.44
2019-03-27T02:11:52.168Z,930.41
2019-03-27T02:12:05.264Z,930.46
2019-03-27T02:12:18.295Z,930.45
2019-03-27T02:12:30.906Z,930.44
2019-03-27T02:12:44.075Z,930.47
2019-03-27T02:12:57.317Z,930.49
2019-03-27T02:13:10.309Z,930.41
2019-03-27T02:13:23.389Z,930.47
2019-03-27T02:13:36.380Z,930.45
2019-03-27T02:13:49.320Z,930.42
2019-03-27T02:14:01.852Z,930.4
2019-03-27T02:14:14.848Z,930.41
2019-03-27T02:14:27.893Z,930.46
2019-03-27T02:14:40.851Z,930.45
2019-03-27T02:14:53.886Z,930.43
2019-03-27T02:15:06.925Z,930.39
2019-03-27T02:15:19.920Z,930.42
2019-03-27T02:15:32.946Z,930.42
2019-03-27T02:15:45.563Z,930.38
2019-03-27T02:16:10.155Z,930.4
2019-03-27T02:16:23.206Z,930.37
2019-03-27T02:16:36.166Z,930.38
2019-03-27T02:16:49.242Z,930.41
2019-03-27T02:17:02.264Z,930.4
2019-03-27T02:17:15.171Z,930.44
2019-03-27T02:17:28.197Z,930.37
2019-03-27T02:17:41.216Z,930.4
2019-03-27T02:17:54.172Z,930.42
2019-03-27T02:18:07.226Z,930.42
2019-03-27T02:18:20.376Z,930.42
2019-03-27T02:18:33.341Z,930.39
2019-03-27T02:18:47.532Z,930.38
2019-03-27T02:19:00.565Z,930.4
2019-03-27T02:19:13.646Z,930.43
2019-03-27T02:19:26.646Z,930.46
2019-03-27T02:19:39.819Z,930.37
2019-03-27T02:19:52.864Z,930.43
2019-03-27T02:20:05.955Z,930.43
2019-03-27T02:20:18.926Z,930.41
2019-03-27T02:20:31.979Z,930.39
2019-03-27T02:20:45.026Z,930.43
2019-03-27T02:20:58.014Z,930.38
2019-03-27T02:21:11.072Z,930.41
2019-03-27T02:21:24.209Z,930.39
2019-03-27T02:21:37.227Z,930.41
2019-03-27T02:21:49.729Z,930.47
2019-03-27T02:22:02.685Z,930.43
2019-03-27T02:22:15.698Z,930.41
2019-03-27T02:22:28.300Z,930.38
2019-03-27T02:22:41.300Z,930.42
2019-03-27T02:22:54.295Z,930.43
2019-03-27T02:23:07.323Z,930.38
2019-03-27T02:23:20.386Z,930.42
2019-03-27T02:23:32.994Z,930.44
2019-03-27T02:23:45.990Z,930.42
2019-03-27T02:23:59.026Z,930.42
2019-03-27T02:24:12.192Z,930.45
2019-03-27T02:24:25.315Z,930.43
2019-03-27T02:24:38.333Z,930.42
2019-03-27T02:24:51.436Z,930.4
2019-03-27T02:25:04.633Z,930.44
2019-03-27T02:25:17.651Z,930.46
2019-03-27T02:25:30.593Z,930.42
2019-03-27T02:25:43.582Z,930.43
2019-03-27T02:25:56.570Z,930.46
2019-03-27T02:26:09.661Z,930.44
2019-03-27T02:26:22.691Z,930.45
2019-03-27T02:26:35.348Z,930.38
2019-03-27T02:26:48.365Z,930.42
2019-03-27T02:27:01.363Z,930.4
2019-03-27T02:27:14.339Z,930.43
2019-03-27T02:27:27.280Z,930.43
2019-03-27T02:27:40.324Z,930.42
2019-03-27T02:27:53.364Z,930.4
2019-03-27T02:28:06.392Z,930.41
2019-03-27T02:28:19.428Z,930.42
2019-03-27T02:28:32.412Z,930.41
2019-03-27T02:28:45.427Z,930.4
2019-03-27T02:28:58.543Z,930.42
2019-03-27T02:29:11.560Z,930.43
2019-03-27T02:29:24.215Z,930.42
2019-03-27T02:29:37.223Z,930.41
2019-03-27T02:29:50.260Z,930.4
2019-03-27T02:30:03.412Z,930.4
2019-03-27T02:30:16.507Z,930.41
2019-03-27T02:30:29.455Z,930.4
2019-03-27T02:30:42.240Z,930.42
2019-03-27T02:30:55.298Z,930.4
2019-03-27T02:31:08.384Z,930.41
2019-03-27T02:31:21.549Z,930.38
2019-03-27T02:31:34.690Z,930.41
2019-03-27T02:31:47.680Z,930.4
2019-03-27T02:32:00.742Z,930.42
2019-03-27T02:32:13.843Z,930.41
2019-03-27T02:32:30.630Z,930.44
2019-03-27T02:32:43.262Z,930.45
2019-03-27T02:32:56.215Z,930.39
2019-03-27T02:33:09.218Z,930.43
2019-03-27T02:33:22.486Z,930.41
2019-03-27T02:33:35.475Z,930.43
2019-03-27T02:33:49.485Z,930.46
2019-03-27T02:34:02.528Z,930.53
2019-03-27T02:34:15.557Z,930.47
2019-03-27T02:34:28.715Z,930.48
2019-03-27T02:34:41.771Z,930.51
2019-03-27T02:34:54.797Z,930.56
2019-03-27T02:35:07.780Z,930.5
2019-03-27T02:35:20.793Z,930.5
2019-03-27T02:35:33.878Z,930.5
2019-03-27T02:35:46.495Z,930.55
2019-03-27T02:35:59.526Z,930.54
2019-03-27T02:36:12.526Z,930.49
2019-03-27T02:36:25.674Z,930.53
2019-03-27T02:36:38.353Z,930.53
2019-03-27T02:36:51.401Z,930.51
2019-03-27T02:37:04.375Z,930.52
2019-03-27T02:37:17.432Z,930.52
2019-03-27T02:37:30.496Z,930.54
2019-03-27T02:37:43.584Z,930.53
2019-03-27T02:37:56.739Z,930.54
2019-03-27T02:38:09.954Z,930.51
2019-03-27T02:38:23.013Z,930.54
2019-03-27T02:38:36.131Z,930.56
2019-03-27T02:38:49.273Z,930.53
2019-03-27T02:39:02.298Z,930.53
2019-03-27T02:39:15.306Z,930.53
2019-03-27T02:39:28.405Z,930.53
2019-03-27T02:39:40.899Z,930.51
2019-03-27T02:39:53.937Z,930.55
2019-03-27T02:40:06.964Z,930.53
2019-03-27T02:40:20.086Z,930.52
2019-03-27T02:40:33.148Z,930.53
2019-03-27T02:40:46.462Z,930.53
2019-03-27T02:40:59.508Z,930.57
2019-03-27T02:41:12.641Z,930.55
2019-03-27T02:41:25.678Z,930.55
2019-03-27T02:41:38.733Z,930.54
2019-03-27T02:41:51.293Z,930.55
2019-03-27T02:42:04.372Z,930.54
2019-03-27T02:42:16.961Z,930.56
2019-03-27T02:42:29.974Z,930.53
2019-03-27T02:42:43.086Z,930.57
2019-03-27T02:42:56.149Z,930.55
2019-03-27T02:43:09.189Z,930.59
2019-03-27T02:43:22.255Z,930.53
2019-03-27T02:43:35.347Z,930.57
2019-03-27T02:43:48.483Z,930.57
2019-03-27T02:44:01.135Z,930.53
2019-03-27T02:44:14.128Z,930.54
2019-03-27T02:44:27.246Z,930.53
2019-03-27T02:44:40.357Z,930.55
2019-03-27T02:44:53.333Z,930.56
2019-03-27T02:45:06.385Z,930.57
2019-03-27T02:45:19.560Z,930.54
2019-03-27T02:45:32.646Z,930.54
2019-03-27T02:45:45.623Z,930.56
2019-03-27T02:45:58.589Z,930.54